sensor_id;sensor_type;location;lat;lon;timestamp;temperature;humidity
28520;DHT22;15732;48.534;20.382;2022-11-03T00:02:10;9.80;99.90
28520;DHT22;15732;48.534;20.382;2022-11-03T00:04:37;9.80;99.90
28520;DHT22;15732;48.534;20.382;2022-11-03T00:07:04;9.80;99.90
28520;DHT22;15732;48.534;20.382;2022-11-03T00:09:32;9.60;99.90
28520;DHT22;15732;48.534;20.382;2022-11-03T00:11:59;9.60;99.90
28520;DHT22;15732;48.534;20.382;2022-11-03T00:14:27;9.60;99.90
28520;DHT22;15732;48.534;20.382;2022-11-03T00:16:54;9.60;99.90
28520;DHT22;15732;48.534;20.382;2022-11-03T00:19:22;9.60;99.90
28520;DHT22;15732;48.534;20.382;2022-11-03T00:21:49;9.60;99.90
28520;DHT22;15732;48.534;20.382;2022-11-03T00:24:20;9.70;99.90
28520;DHT22;15732;48.534;20.382;2022-11-03T00:26:48;9.70;99.90
28520;DHT22;15732;48.534;20.382;2022-11-03T00:29:15;9.60;99.90
28520;DHT22;15732;48.534;20.382;2022-11-03T00:31:46;9.60;99.90
28520;DHT22;15732;48.534;20.382;2022-11-03T00:34:12;9.60;99.90
28520;DHT22;15732;48.534;20.382;2022-11-03T00:36:41;9.50;99.90
28520;DHT22;15732;48.534;20.382;2022-11-03T00:39:09;9.50;99.90
28520;DHT22;15732;48.534;20.382;2022-11-03T00:41:37;9.40;99.90
28520;DHT22;15732;48.534;20.382;2022-11-03T00:44:04;9.40;99.90
28520;DHT22;15732;48.534;20.382;2022-11-03T00:46:30;9.40;99.90
28520;DHT22;15732;48.534;20.382;2022-11-03T00:49:01;9.40;99.90
28520;DHT22;15732;48.534;20.382;2022-11-03T00:51:28;9.40;99.90
28520;DHT22;15732;48.534;20.382;2022-11-03T00:54:01;9.40;99.90
28520;DHT22;15732;48.534;20.382;2022-11-03T00:56:35;9.40;99.90
28520;DHT22;15732;48.534;20.382;2022-11-03T00:59:04;9.40;99.90
28520;DHT22;15732;48.534;20.382;2022-11-03T01:01:32;9.30;99.90
28520;DHT22;15732;48.534;20.382;2022-11-03T01:04:02;9.30;99.90
28520;DHT22;15732;48.534;20.382;2022-11-03T01:06:49;9.20;99.90
28520;DHT22;15732;48.534;20.382;2022-11-03T01:09:32;9.20;99.90
28520;DHT22;15732;48.534;20.382;2022-11-03T01:12:13;9.20;99.90
28520;DHT22;15732;48.534;20.382;2022-11-03T01:17:17;9.20;99.90
28520;DHT22;15732;48.534;20.382;2022-11-03T01:19:44;9.10;99.90
28520;DHT22;15732;48.534;20.382;2022-11-03T01:22:12;9.00;99.90
28520;DHT22;15732;48.534;20.382;2022-11-03T01:24:39;9.00;99.90
28520;DHT22;15732;48.534;20.382;2022-11-03T01:27:11;9.00;99.90
28520;DHT22;15732;48.534;20.382;2022-11-03T01:29:39;9.00;99.90
28520;DHT22;15732;48.534;20.382;2022-11-03T01:32:10;9.10;99.90
28520;DHT22;15732;48.534;20.382;2022-11-03T01:34:37;9.10;99.90
28520;DHT22;15732;48.534;20.382;2022-11-03T01:37:08;9.00;99.90
28520;DHT22;15732;48.534;20.382;2022-11-03T01:39:35;9.00;99.90
28520;DHT22;15732;48.534;20.382;2022-11-03T01:42:03;9.00;99.90
28520;DHT22;15732;48.534;20.382;2022-11-03T01:44:38;9.00;99.90
28520;DHT22;15732;48.534;20.382;2022-11-03T01:47:20;9.00;99.90
28520;DHT22;15732;48.534;20.382;2022-11-03T01:50:05;9.00;99.90
28520;DHT22;15732;48.534;20.382;2022-11-03T01:52:50;9.00;99.90
28520;DHT22;15732;48.534;20.382;2022-11-03T01:55:21;9.00;99.90
28520;DHT22;15732;48.534;20.382;2022-11-03T01:57:53;9.00;99.90
28520;DHT22;15732;48.534;20.382;2022-11-03T02:00:25;9.00;99.90
28520;DHT22;15732;48.534;20.382;2022-11-03T02:02:56;9.00;99.90
28520;DHT22;15732;48.534;20.382;2022-11-03T02:05:28;9.00;99.90
28520;DHT22;15732;48.534;20.382;2022-11-03T02:10:36;8.80;99.90
28520;DHT22;15732;48.534;20.382;2022-11-03T02:13:11;8.70;99.90
28520;DHT22;15732;48.534;20.382;2022-11-03T02:15:41;8.70;99.90
28520;DHT22;15732;48.534;20.382;2022-11-03T02:18:09;8.70;99.90
28520;DHT22;15732;48.534;20.382;2022-11-03T02:20:41;8.70;99.90
28520;DHT22;15732;48.534;20.382;2022-11-03T02:25:49;8.50;99.90
28520;DHT22;15732;48.534;20.382;2022-11-03T02:28:19;8.50;99.90
28520;DHT22;15732;48.534;20.382;2022-11-03T02:34:11;8.60;99.90
28520;DHT22;15732;48.534;20.382;2022-11-03T02:36:47;8.60;99.90
28520;DHT22;15732;48.534;20.382;2022-11-03T02:39:26;8.60;99.90
28520;DHT22;15732;48.534;20.382;2022-11-03T02:42:11;8.70;99.90
28520;DHT22;15732;48.534;20.382;2022-11-03T02:44:59;8.60;99.90
28520;DHT22;15732;48.534;20.382;2022-11-03T02:47:46;8.50;99.90
28520;DHT22;15732;48.534;20.382;2022-11-03T02:50:53;8.40;99.90
28520;DHT22;15732;48.534;20.382;2022-11-03T02:53:59;8.40;99.90
28520;DHT22;15732;48.534;20.382;2022-11-03T02:56:50;8.40;99.90
28520;DHT22;15732;48.534;20.382;2022-11-03T02:59:53;8.30;99.90
28520;DHT22;15732;48.534;20.382;2022-11-03T03:03:02;8.30;99.90
28520;DHT22;15732;48.534;20.382;2022-11-03T03:05:55;8.30;99.90
28520;DHT22;15732;48.534;20.382;2022-11-03T03:09:02;8.30;99.90
28520;DHT22;15732;48.534;20.382;2022-11-03T03:11:34;8.20;99.90
28520;DHT22;15732;48.534;20.382;2022-11-03T03:14:41;8.10;99.90
28520;DHT22;15732;48.534;20.382;2022-11-03T03:17:39;8.10;99.90
28520;DHT22;15732;48.534;20.382;2022-11-03T03:20:11;8.00;99.90
28520;DHT22;15732;48.534;20.382;2022-11-03T03:22:55;8.00;99.90
28520;DHT22;15732;48.534;20.382;2022-11-03T03:28:02;8.00;99.90
28520;DHT22;15732;48.534;20.382;2022-11-03T03:31:05;8.00;99.90
28520;DHT22;15732;48.534;20.382;2022-11-03T03:33:53;7.90;99.90
28520;DHT22;15732;48.534;20.382;2022-11-03T03:36:39;7.80;99.90
28520;DHT22;15732;48.534;20.382;2022-11-03T03:39:09;7.70;99.90
28520;DHT22;15732;48.534;20.382;2022-11-03T03:41:38;7.70;99.90
28520;DHT22;15732;48.534;20.382;2022-11-03T03:44:08;7.70;99.90
28520;DHT22;15732;48.534;20.382;2022-11-03T03:46:41;7.60;99.90
28520;DHT22;15732;48.534;20.382;2022-11-03T03:49:14;7.60;99.90
28520;DHT22;15732;48.534;20.382;2022-11-03T03:51:42;7.60;99.90
28520;DHT22;15732;48.534;20.382;2022-11-03T03:54:09;7.60;99.90
28520;DHT22;15732;48.534;20.382;2022-11-03T03:59:26;7.60;99.90
28520;DHT22;15732;48.534;20.382;2022-11-03T04:01:53;7.60;99.90
28520;DHT22;15732;48.534;20.382;2022-11-03T04:04:20;7.60;99.90
28520;DHT22;15732;48.534;20.382;2022-11-03T04:06:48;7.60;99.90
28520;DHT22;15732;48.534;20.382;2022-11-03T04:09:35;7.70;99.90
28520;DHT22;15732;48.534;20.382;2022-11-03T04:12:03;7.60;99.90
28520;DHT22;15732;48.534;20.382;2022-11-03T04:14:49;7.60;99.90
28520;DHT22;15732;48.534;20.382;2022-11-03T04:17:34;7.60;99.90
28520;DHT22;15732;48.534;20.382;2022-11-03T04:20:19;7.60;99.90
28520;DHT22;15732;48.534;20.382;2022-11-03T04:23:05;7.70;99.90
28520;DHT22;15732;48.534;20.382;2022-11-03T04:25:36;7.60;99.90
28520;DHT22;15732;48.534;20.382;2022-11-03T04:28:14;7.60;99.90
28520;DHT22;15732;48.534;20.382;2022-11-03T04:30:41;7.60;99.90
28520;DHT22;15732;48.534;20.382;2022-11-03T04:33:17;7.60;99.90
28520;DHT22;15732;48.534;20.382;2022-11-03T04:35:45;7.50;99.90
28520;DHT22;15732;48.534;20.382;2022-11-03T04:40:44;7.50;99.90
28520;DHT22;15732;48.534;20.382;2022-11-03T04:43:16;7.60;99.90
28520;DHT22;15732;48.534;20.382;2022-11-03T04:45:48;7.60;99.90
28520;DHT22;15732;48.534;20.382;2022-11-03T04:48:21;7.70;99.90
28520;DHT22;15732;48.534;20.382;2022-11-03T04:50:55;7.60;99.90
28520;DHT22;15732;48.534;20.382;2022-11-03T04:53:25;7.60;99.90
28520;DHT22;15732;48.534;20.382;2022-11-03T04:55:54;7.50;99.90
28520;DHT22;15732;48.534;20.382;2022-11-03T04:58:25;7.40;99.90
28520;DHT22;15732;48.534;20.382;2022-11-03T05:01:13;7.30;99.90
28520;DHT22;15732;48.534;20.382;2022-11-03T05:03:40;7.20;99.90
28520;DHT22;15732;48.534;20.382;2022-11-03T05:06:14;7.20;99.90
28520;DHT22;15732;48.534;20.382;2022-11-03T05:08:43;7.20;99.90
28520;DHT22;15732;48.534;20.382;2022-11-03T05:13:47;7.10;99.90
28520;DHT22;15732;48.534;20.382;2022-11-03T05:16:18;7.10;99.90
28520;DHT22;15732;48.534;20.382;2022-11-03T05:18:47;7.00;99.90
28520;DHT22;15732;48.534;20.382;2022-11-03T05:21:17;7.00;99.90
28520;DHT22;15732;48.534;20.382;2022-11-03T05:23:57;6.90;99.90
28520;DHT22;15732;48.534;20.382;2022-11-03T05:26:34;6.90;99.90
28520;DHT22;15732;48.534;20.382;2022-11-03T05:31:47;6.80;99.90
28520;DHT22;15732;48.534;20.382;2022-11-03T05:39:48;6.70;99.90
28520;DHT22;15732;48.534;20.382;2022-11-03T05:44:49;6.90;99.90
28520;DHT22;15732;48.534;20.382;2022-11-03T05:47:32;6.80;99.90
28520;DHT22;15732;48.534;20.382;2022-11-03T05:50:20;6.80;99.90
28520;DHT22;15732;48.534;20.382;2022-11-03T05:52:49;6.80;99.90
28520;DHT22;15732;48.534;20.382;2022-11-03T05:55:36;6.70;99.90
28520;DHT22;15732;48.534;20.382;2022-11-03T05:58:26;6.80;99.90
28520;DHT22;15732;48.534;20.382;2022-11-03T06:00:55;6.70;99.90
28520;DHT22;15732;48.534;20.382;2022-11-03T06:03:30;6.80;99.90
28520;DHT22;15732;48.534;20.382;2022-11-03T06:06:01;6.70;99.90
28520;DHT22;15732;48.534;20.382;2022-11-03T06:08:33;6.80;99.90
28520;DHT22;15732;48.534;20.382;2022-11-03T06:11:07;6.80;99.90
28520;DHT22;15732;48.534;20.382;2022-11-03T06:13:37;6.80;99.90
28520;DHT22;15732;48.534;20.382;2022-11-03T06:16:37;6.80;99.90
28520;DHT22;15732;48.534;20.382;2022-11-03T06:21:44;6.90;99.90
28520;DHT22;15732;48.534;20.382;2022-11-03T06:24:12;7.00;99.90
28520;DHT22;15732;48.534;20.382;2022-11-03T06:26:41;7.00;99.90
28520;DHT22;15732;48.534;20.382;2022-11-03T06:29:16;7.00;99.90
28520;DHT22;15732;48.534;20.382;2022-11-03T06:32:00;7.00;99.90
28520;DHT22;15732;48.534;20.382;2022-11-03T06:34:46;7.10;99.90
28520;DHT22;15732;48.534;20.382;2022-11-03T06:39:50;7.10;99.90
28520;DHT22;15732;48.534;20.382;2022-11-03T06:42:20;7.10;99.90
28520;DHT22;15732;48.534;20.382;2022-11-03T06:44:51;7.10;99.90
28520;DHT22;15732;48.534;20.382;2022-11-03T06:47:26;7.10;99.90
28520;DHT22;15732;48.534;20.382;2022-11-03T06:49:56;7.20;99.90
28520;DHT22;15732;48.534;20.382;2022-11-03T06:52:32;7.20;99.90
28520;DHT22;15732;48.534;20.382;2022-11-03T06:55:14;7.20;99.90
28520;DHT22;15732;48.534;20.382;2022-11-03T06:57:52;7.20;99.90
28520;DHT22;15732;48.534;20.382;2022-11-03T07:05:28;7.30;99.90
28520;DHT22;15732;48.534;20.382;2022-11-03T07:08:16;7.20;99.90
28520;DHT22;15732;48.534;20.382;2022-11-03T07:10:45;7.30;99.90
28520;DHT22;15732;48.534;20.382;2022-11-03T07:13:14;7.30;99.90
28520;DHT22;15732;48.534;20.382;2022-11-03T07:15:44;7.40;99.90
28520;DHT22;15732;48.534;20.382;2022-11-03T07:20:45;7.50;99.90
28520;DHT22;15732;48.534;20.382;2022-11-03T07:23:17;7.60;99.90
28520;DHT22;15732;48.534;20.382;2022-11-03T07:25:54;7.60;99.90
28520;DHT22;15732;48.534;20.382;2022-11-03T07:28:34;7.70;99.90
28520;DHT22;15732;48.534;20.382;2022-11-03T07:31:11;7.70;99.90
28520;DHT22;15732;48.534;20.382;2022-11-03T07:33:39;7.80;99.90
28520;DHT22;15732;48.534;20.382;2022-11-03T07:36:09;7.80;99.90
28520;DHT22;15732;48.534;20.382;2022-11-03T07:38:43;7.90;99.90
28520;DHT22;15732;48.534;20.382;2022-11-03T07:41:17;7.90;99.90
28520;DHT22;15732;48.534;20.382;2022-11-03T07:43:54;7.90;99.90
28520;DHT22;15732;48.534;20.382;2022-11-03T07:46:22;8.00;99.90
28520;DHT22;15732;48.534;20.382;2022-11-03T07:48:56;8.00;99.90
28520;DHT22;15732;48.534;20.382;2022-11-03T07:51:27;7.90;99.90
28520;DHT22;15732;48.534;20.382;2022-11-03T07:54:14;7.90;99.90
28520;DHT22;15732;48.534;20.382;2022-11-03T07:56:53;7.90;99.90
28520;DHT22;15732;48.534;20.382;2022-11-03T08:04:57;7.80;99.90
28520;DHT22;15732;48.534;20.382;2022-11-03T08:07:24;7.80;99.90
28520;DHT22;15732;48.534;20.382;2022-11-03T08:09:51;7.80;99.90
28520;DHT22;15732;48.534;20.382;2022-11-03T08:12:25;7.80;99.90
28520;DHT22;15732;48.534;20.382;2022-11-03T08:14:53;7.80;99.90
28520;DHT22;15732;48.534;20.382;2022-11-03T08:17:19;7.90;99.90
28520;DHT22;15732;48.534;20.382;2022-11-03T08:19:47;7.90;99.90
28520;DHT22;15732;48.534;20.382;2022-11-03T08:22:14;8.00;99.90
28520;DHT22;15732;48.534;20.382;2022-11-03T08:24:41;8.10;99.90
28520;DHT22;15732;48.534;20.382;2022-11-03T08:27:09;8.20;99.90
28520;DHT22;15732;48.534;20.382;2022-11-03T08:29:36;8.30;99.90
28520;DHT22;15732;48.534;20.382;2022-11-03T08:32:07;8.30;99.90
28520;DHT22;15732;48.534;20.382;2022-11-03T08:34:35;8.50;99.90
28520;DHT22;15732;48.534;20.382;2022-11-03T08:37:02;8.50;99.90
28520;DHT22;15732;48.534;20.382;2022-11-03T08:39:29;8.60;99.90
28520;DHT22;15732;48.534;20.382;2022-11-03T08:42:01;8.70;99.90
28520;DHT22;15732;48.534;20.382;2022-11-03T08:44:28;8.80;99.90
28520;DHT22;15732;48.534;20.382;2022-11-03T08:46:56;8.90;99.90
28520;DHT22;15732;48.534;20.382;2022-11-03T08:49:23;9.00;99.90
28520;DHT22;15732;48.534;20.382;2022-11-03T08:51:50;9.10;99.90
28520;DHT22;15732;48.534;20.382;2022-11-03T08:54:17;9.10;99.90
28520;DHT22;15732;48.534;20.382;2022-11-03T08:56:49;9.20;99.90
28520;DHT22;15732;48.534;20.382;2022-11-03T08:59:20;9.30;99.90
28520;DHT22;15732;48.534;20.382;2022-11-03T09:01:51;9.30;99.90
28520;DHT22;15732;48.534;20.382;2022-11-03T09:04:22;9.40;99.90
28520;DHT22;15732;48.534;20.382;2022-11-03T09:06:49;9.60;99.90
28520;DHT22;15732;48.534;20.382;2022-11-03T09:09:16;9.60;99.90
28520;DHT22;15732;48.534;20.382;2022-11-03T09:11:43;9.70;99.90
28520;DHT22;15732;48.534;20.382;2022-11-03T09:14:11;9.70;99.90
28520;DHT22;15732;48.534;20.382;2022-11-03T09:16:42;9.90;99.90
28520;DHT22;15732;48.534;20.382;2022-11-03T09:19:10;9.90;99.90
28520;DHT22;15732;48.534;20.382;2022-11-03T09:21:37;10.00;99.90
28520;DHT22;15732;48.534;20.382;2022-11-03T09:24:08;10.00;99.90
28520;DHT22;15732;48.534;20.382;2022-11-03T09:26:36;10.20;99.90
28520;DHT22;15732;48.534;20.382;2022-11-03T09:29:07;10.20;99.90
28520;DHT22;15732;48.534;20.382;2022-11-03T09:31:34;10.20;99.90
28520;DHT22;15732;48.534;20.382;2022-11-03T09:34:01;10.30;99.90
28520;DHT22;15732;48.534;20.382;2022-11-03T09:36:28;10.40;99.90
28520;DHT22;15732;48.534;20.382;2022-11-03T09:38:56;10.40;99.90
28520;DHT22;15732;48.534;20.382;2022-11-03T09:41:23;10.50;99.90
28520;DHT22;15732;48.534;20.382;2022-11-03T09:43:51;10.50;99.90
28520;DHT22;15732;48.534;20.382;2022-11-03T09:46:19;10.60;99.90
28520;DHT22;15732;48.534;20.382;2022-11-03T09:48:47;10.60;99.90
28520;DHT22;15732;48.534;20.382;2022-11-03T09:51:19;10.70;99.90
28520;DHT22;15732;48.534;20.382;2022-11-03T09:53:47;10.80;99.90
28520;DHT22;15732;48.534;20.382;2022-11-03T09:56:18;10.80;99.90
28520;DHT22;15732;48.534;20.382;2022-11-03T09:58:47;10.90;99.90
28520;DHT22;15732;48.534;20.382;2022-11-03T10:01:17;11.00;99.90
28520;DHT22;15732;48.534;20.382;2022-11-03T10:03:49;11.10;99.90
28520;DHT22;15732;48.534;20.382;2022-11-03T10:06:16;11.20;99.90
28520;DHT22;15732;48.534;20.382;2022-11-03T10:08:49;11.20;99.90
28520;DHT22;15732;48.534;20.382;2022-11-03T10:11:20;11.30;99.90
28520;DHT22;15732;48.534;20.382;2022-11-03T10:13:53;11.40;99.90
28520;DHT22;15732;48.534;20.382;2022-11-03T10:16:22;11.50;99.90
28520;DHT22;15732;48.534;20.382;2022-11-03T10:18:50;11.60;99.90
28520;DHT22;15732;48.534;20.382;2022-11-03T10:21:19;11.60;99.90
28520;DHT22;15732;48.534;20.382;2022-11-03T10:23:48;11.70;99.90
28520;DHT22;15732;48.534;20.382;2022-11-03T10:26:17;11.80;99.90
28520;DHT22;15732;48.534;20.382;2022-11-03T10:29:04;11.90;99.90
28520;DHT22;15732;48.534;20.382;2022-11-03T10:31:36;12.10;99.90
28520;DHT22;15732;48.534;20.382;2022-11-03T10:34:36;12.20;99.90
28520;DHT22;15732;48.534;20.382;2022-11-03T10:37:21;12.40;99.90
28520;DHT22;15732;48.534;20.382;2022-11-03T10:39:51;12.50;99.90
28520;DHT22;15732;48.534;20.382;2022-11-03T10:42:23;12.60;99.90
28520;DHT22;15732;48.534;20.382;2022-11-03T10:45:15;12.70;99.90
28520;DHT22;15732;48.534;20.382;2022-11-03T10:47:43;12.80;99.90
28520;DHT22;15732;48.534;20.382;2022-11-03T10:50:21;12.90;99.90
28520;DHT22;15732;48.534;20.382;2022-11-03T10:52:51;12.90;99.90
28520;DHT22;15732;48.534;20.382;2022-11-03T10:55:23;13.00;99.90
28520;DHT22;15732;48.534;20.382;2022-11-03T10:57:52;13.00;99.90
28520;DHT22;15732;48.534;20.382;2022-11-03T11:00:20;13.10;99.90
28520;DHT22;15732;48.534;20.382;2022-11-03T11:02:48;13.20;99.90
28520;DHT22;15732;48.534;20.382;2022-11-03T11:05:21;13.20;99.90
28520;DHT22;15732;48.534;20.382;2022-11-03T11:07:53;13.30;99.90
28520;DHT22;15732;48.534;20.382;2022-11-03T11:10:25;13.30;99.90
28520;DHT22;15732;48.534;20.382;2022-11-03T11:18:07;13.40;99.90
28520;DHT22;15732;48.534;20.382;2022-11-03T11:20:37;13.50;99.90
28520;DHT22;15732;48.534;20.382;2022-11-03T11:28:46;13.40;99.90
28520;DHT22;15732;48.534;20.382;2022-11-03T11:31:31;13.40;99.90
28520;DHT22;15732;48.534;20.382;2022-11-03T11:42:16;13.30;99.90
28520;DHT22;15732;48.534;20.382;2022-11-03T11:52:26;13.20;99.90
28520;DHT22;15732;48.534;20.382;2022-11-03T11:54:58;13.20;99.90
28520;DHT22;15732;48.534;20.382;2022-11-03T11:57:32;13.20;99.90
28520;DHT22;15732;48.534;20.382;2022-11-03T12:00:01;13.20;99.90
28520;DHT22;15732;48.534;20.382;2022-11-03T12:02:29;13.20;99.90
28520;DHT22;15732;48.534;20.382;2022-11-03T12:04:58;13.20;99.90
28520;DHT22;15732;48.534;20.382;2022-11-03T12:07:35;13.10;99.90
28520;DHT22;15732;48.534;20.382;2022-11-03T12:10:14;13.10;99.90
28520;DHT22;15732;48.534;20.382;2022-11-03T12:12:41;13.10;99.90
28520;DHT22;15732;48.534;20.382;2022-11-03T12:18:47;13.20;99.90
28520;DHT22;15732;48.534;20.382;2022-11-03T12:21:43;13.30;99.90
28520;DHT22;15732;48.534;20.382;2022-11-03T12:26:59;13.30;99.90
28520;DHT22;15732;48.534;20.382;2022-11-03T12:29:43;13.30;99.90
28520;DHT22;15732;48.534;20.382;2022-11-03T12:32:11;13.30;99.90
28520;DHT22;15732;48.534;20.382;2022-11-03T12:34:41;13.40;99.90
28520;DHT22;15732;48.534;20.382;2022-11-03T12:37:09;13.40;99.90
28520;DHT22;15732;48.534;20.382;2022-11-03T12:39:36;13.40;99.90
28520;DHT22;15732;48.534;20.382;2022-11-03T12:42:06;13.50;99.90
28520;DHT22;15732;48.534;20.382;2022-11-03T12:44:33;13.60;99.90
28520;DHT22;15732;48.534;20.382;2022-11-03T12:47:05;13.60;99.90
28520;DHT22;15732;48.534;20.382;2022-11-03T12:49:36;13.60;99.90
28520;DHT22;15732;48.534;20.382;2022-11-03T12:52:03;13.60;99.90
28520;DHT22;15732;48.534;20.382;2022-11-03T12:54:32;13.70;99.90
28520;DHT22;15732;48.534;20.382;2022-11-03T12:57:00;13.70;99.90
28520;DHT22;15732;48.534;20.382;2022-11-03T12:59:31;13.70;99.90
28520;DHT22;15732;48.534;20.382;2022-11-03T13:01:58;13.70;99.90
28520;DHT22;15732;48.534;20.382;2022-11-03T13:04:29;13.70;99.90
28520;DHT22;15732;48.534;20.382;2022-11-03T13:07:00;13.70;99.90
28520;DHT22;15732;48.534;20.382;2022-11-03T13:09:27;13.70;99.90
28520;DHT22;15732;48.534;20.382;2022-11-03T13:11:54;13.70;99.90
28520;DHT22;15732;48.534;20.382;2022-11-03T13:14:40;13.70;99.90
28520;DHT22;15732;48.534;20.382;2022-11-03T13:17:07;13.70;99.90
28520;DHT22;15732;48.534;20.382;2022-11-03T13:19:34;13.70;99.90
28520;DHT22;15732;48.534;20.382;2022-11-03T13:22:06;13.70;99.90
28520;DHT22;15732;48.534;20.382;2022-11-03T13:24:33;13.70;99.90
28520;DHT22;15732;48.534;20.382;2022-11-03T13:27:00;13.70;99.90
28520;DHT22;15732;48.534;20.382;2022-11-03T13:29:27;13.70;99.90
28520;DHT22;15732;48.534;20.382;2022-11-03T13:31:55;13.70;99.90
28520;DHT22;15732;48.534;20.382;2022-11-03T13:34:22;13.70;99.90
28520;DHT22;15732;48.534;20.382;2022-11-03T13:36:53;13.80;99.90
28520;DHT22;15732;48.534;20.382;2022-11-03T13:39:20;13.70;99.90
28520;DHT22;15732;48.534;20.382;2022-11-03T13:41:51;13.70;99.90
28520;DHT22;15732;48.534;20.382;2022-11-03T13:44:18;13.70;99.90
28520;DHT22;15732;48.534;20.382;2022-11-03T13:46:45;13.70;99.90
28520;DHT22;15732;48.534;20.382;2022-11-03T13:49:12;13.70;99.90
28520;DHT22;15732;48.534;20.382;2022-11-03T13:51:39;13.70;99.90
28520;DHT22;15732;48.534;20.382;2022-11-03T13:54:06;13.70;99.90
28520;DHT22;15732;48.534;20.382;2022-11-03T13:56:34;13.70;99.90
28520;DHT22;15732;48.534;20.382;2022-11-03T13:59:05;13.70;99.90
28520;DHT22;15732;48.534;20.382;2022-11-03T14:01:32;13.70;99.90
28520;DHT22;15732;48.534;20.382;2022-11-03T14:04:00;13.70;99.90
28520;DHT22;15732;48.534;20.382;2022-11-03T14:06:31;13.70;99.90
28520;DHT22;15732;48.534;20.382;2022-11-03T14:09:02;13.80;99.90
28520;DHT22;15732;48.534;20.382;2022-11-03T14:11:33;13.70;99.90
28520;DHT22;15732;48.534;20.382;2022-11-03T14:14:19;13.70;99.90
28520;DHT22;15732;48.534;20.382;2022-11-03T14:16:50;13.70;99.90
28520;DHT22;15732;48.534;20.382;2022-11-03T14:19:17;13.60;99.90
28520;DHT22;15732;48.534;20.382;2022-11-03T14:21:44;13.50;99.90
28520;DHT22;15732;48.534;20.382;2022-11-03T14:24:10;13.50;99.90
28520;DHT22;15732;48.534;20.382;2022-11-03T14:26:38;13.50;99.90
28520;DHT22;15732;48.534;20.382;2022-11-03T14:29:05;13.50;99.90
28520;DHT22;15732;48.534;20.382;2022-11-03T14:31:36;13.50;99.90
28520;DHT22;15732;48.534;20.382;2022-11-03T14:34:04;13.50;99.90
28520;DHT22;15732;48.534;20.382;2022-11-03T14:36:35;13.50;99.90
28520;DHT22;15732;48.534;20.382;2022-11-03T14:39:06;13.50;99.90
28520;DHT22;15732;48.534;20.382;2022-11-03T14:41:33;13.50;99.90
28520;DHT22;15732;48.534;20.382;2022-11-03T14:44:19;13.40;99.90
28520;DHT22;15732;48.534;20.382;2022-11-03T14:46:46;13.40;99.90
28520;DHT22;15732;48.534;20.382;2022-11-03T14:49:13;13.40;99.90
28520;DHT22;15732;48.534;20.382;2022-11-03T14:51:41;13.40;99.90
28520;DHT22;15732;48.534;20.382;2022-11-03T14:54:11;13.30;99.90
28520;DHT22;15732;48.534;20.382;2022-11-03T14:56:38;13.30;99.90
28520;DHT22;15732;48.534;20.382;2022-11-03T14:59:05;13.30;99.90
28520;DHT22;15732;48.534;20.382;2022-11-03T15:01:32;13.20;99.90
28520;DHT22;15732;48.534;20.382;2022-11-03T15:04:01;13.20;99.90
28520;DHT22;15732;48.534;20.382;2022-11-03T15:06:29;13.20;99.90
28520;DHT22;15732;48.534;20.382;2022-11-03T15:08:56;13.20;99.90
28520;DHT22;15732;48.534;20.382;2022-11-03T15:11:23;13.20;99.90
28520;DHT22;15732;48.534;20.382;2022-11-03T15:13:51;13.10;99.90
28520;DHT22;15732;48.534;20.382;2022-11-03T15:16:25;13.10;99.90
28520;DHT22;15732;48.534;20.382;2022-11-03T15:18:52;13.00;99.90
28520;DHT22;15732;48.534;20.382;2022-11-03T15:21:19;13.00;99.90
28520;DHT22;15732;48.534;20.382;2022-11-03T15:23:50;13.00;99.90
28520;DHT22;15732;48.534;20.382;2022-11-03T15:26:17;13.00;99.90
28520;DHT22;15732;48.534;20.382;2022-11-03T15:28:45;12.90;99.90
28520;DHT22;15732;48.534;20.382;2022-11-03T15:31:16;12.90;99.90
28520;DHT22;15732;48.534;20.382;2022-11-03T15:33:47;12.80;99.90
28520;DHT22;15732;48.534;20.382;2022-11-03T15:36:15;12.80;99.90
28520;DHT22;15732;48.534;20.382;2022-11-03T15:38:46;12.80;99.90
28520;DHT22;15732;48.534;20.382;2022-11-03T15:41:13;12.70;99.90
28520;DHT22;15732;48.534;20.382;2022-11-03T15:43:47;12.70;99.90
28520;DHT22;15732;48.534;20.382;2022-11-03T15:46:15;12.70;99.90
28520;DHT22;15732;48.534;20.382;2022-11-03T15:48:47;12.60;99.90
28520;DHT22;15732;48.534;20.382;2022-11-03T15:51:18;12.60;99.90
28520;DHT22;15732;48.534;20.382;2022-11-03T15:53:49;12.50;99.90
28520;DHT22;15732;48.534;20.382;2022-11-03T15:56:16;12.50;99.90
28520;DHT22;15732;48.534;20.382;2022-11-03T15:58:43;12.40;99.90
28520;DHT22;15732;48.534;20.382;2022-11-03T16:01:11;12.30;99.90
28520;DHT22;15732;48.534;20.382;2022-11-03T16:03:38;12.30;99.90
28520;DHT22;15732;48.534;20.382;2022-11-03T16:06:06;12.30;99.90
28520;DHT22;15732;48.534;20.382;2022-11-03T16:08:34;12.20;99.90
28520;DHT22;15732;48.534;20.382;2022-11-03T16:11:05;12.20;99.90
28520;DHT22;15732;48.534;20.382;2022-11-03T16:13:33;12.10;99.90
28520;DHT22;15732;48.534;20.382;2022-11-03T16:16:05;12.20;99.90
28520;DHT22;15732;48.534;20.382;2022-11-03T16:18:32;12.10;99.90
28520;DHT22;15732;48.534;20.382;2022-11-03T16:21:00;12.10;99.90
28520;DHT22;15732;48.534;20.382;2022-11-03T16:23:27;12.10;99.90
28520;DHT22;15732;48.534;20.382;2022-11-03T16:25:55;12.00;99.90
28520;DHT22;15732;48.534;20.382;2022-11-03T16:28:21;12.00;99.90
28520;DHT22;15732;48.534;20.382;2022-11-03T16:30:49;12.00;99.90
28520;DHT22;15732;48.534;20.382;2022-11-03T16:33:16;11.90;99.90
28520;DHT22;15732;48.534;20.382;2022-11-03T16:35:47;11.90;99.90
28520;DHT22;15732;48.534;20.382;2022-11-03T16:38:19;11.80;99.90
28520;DHT22;15732;48.534;20.382;2022-11-03T16:40:50;11.80;99.90
28520;DHT22;15732;48.534;20.382;2022-11-03T16:43:21;11.80;99.90
28520;DHT22;15732;48.534;20.382;2022-11-03T16:45:48;11.80;99.90
28520;DHT22;15732;48.534;20.382;2022-11-03T16:48:16;11.70;99.90
28520;DHT22;15732;48.534;20.382;2022-11-03T16:50:47;11.70;99.90
28520;DHT22;15732;48.534;20.382;2022-11-03T16:53:18;11.70;99.90
28520;DHT22;15732;48.534;20.382;2022-11-03T16:55:49;11.60;99.90
28520;DHT22;15732;48.534;20.382;2022-11-03T16:58:16;11.60;99.90
28520;DHT22;15732;48.534;20.382;2022-11-03T17:00:47;11.60;99.90
28520;DHT22;15732;48.534;20.382;2022-11-03T17:03:14;11.50;99.90
28520;DHT22;15732;48.534;20.382;2022-11-03T17:05:42;11.40;99.90
28520;DHT22;15732;48.534;20.382;2022-11-03T17:08:13;11.40;99.90
28520;DHT22;15732;48.534;20.382;2022-11-03T17:10:44;11.30;99.90
28520;DHT22;15732;48.534;20.382;2022-11-03T17:13:11;11.30;99.90
28520;DHT22;15732;48.534;20.382;2022-11-03T17:15:43;11.20;99.90
28520;DHT22;15732;48.534;20.382;2022-11-03T17:18:14;11.10;99.90
28520;DHT22;15732;48.534;20.382;2022-11-03T17:20:45;11.00;99.90